Aviation Digital Data Service (ADDS)

Output produced by METARs form (0423 UTC 26 October 2014)
found at http://aviationweather.gov/adds/metars/
 
KBDR 260204Z 2602/2624 23012G18KT P6SM SCT050 
     FM260500 27010KT P6SM BKN050 
     FM260900 29010G16KT P6SM SCT050 
     FM261500 30016G28KT P6SM BKN050 
     FM262200 30014G22KT P6SM FEW050